sensor_id;sensor_type;location;lat;lon;timestamp;P1;durP1;ratioP1;P2;durP2;ratioP2
20792;SDS011;10556;-33.662;151.094;2023-02-12T00:02:20;8.45;;;2.22;;
20792;SDS011;10556;-33.662;151.094;2023-02-12T00:07:22;4.25;;;1.60;;
20792;SDS011;10556;-33.662;151.094;2023-02-12T00:12:25;3.60;;;1.60;;
20792;SDS011;10556;-33.662;151.094;2023-02-12T00:17:27;4.15;;;1.92;;
20792;SDS011;10556;-33.662;151.094;2023-02-12T00:22:28;2.88;;;1.25;;
20792;SDS011;10556;-33.662;151.094;2023-02-12T00:27:33;3.75;;;1.35;;
20792;SDS011;10556;-33.662;151.094;2023-02-12T00:32:35;5.40;;;1.63;;
20792;SDS011;10556;-33.662;151.094;2023-02-12T00:37:36;5.80;;;1.85;;
20792;SDS011;10556;-33.662;151.094;2023-02-12T00:42:40;7.63;;;1.88;;
20792;SDS011;10556;-33.662;151.094;2023-02-12T00:47:41;8.48;;;2.72;;
20792;SDS011;10556;-33.662;151.094;2023-02-12T00:52:43;7.32;;;2.08;;
20792;SDS011;10556;-33.662;151.094;2023-02-12T00:57:46;7.93;;;2.28;;
20792;SDS011;10556;-33.662;151.094;2023-02-12T01:02:47;5.03;;;2.13;;
20792;SDS011;10556;-33.662;151.094;2023-02-12T01:07:49;4.45;;;1.55;;
20792;SDS011;10556;-33.662;151.094;2023-02-12T01:12:53;4.05;;;1.73;;
20792;SDS011;10556;-33.662;151.094;2023-02-12T01:17:54;13.00;;;2.28;;
20792;SDS011;10556;-33.662;151.094;2023-02-12T01:22:56;11.90;;;3.10;;
20792;SDS011;10556;-33.662;151.094;2023-02-12T01:27:59;7.82;;;2.50;;
20792;SDS011;10556;-33.662;151.094;2023-02-12T01:33:01;7.28;;;1.88;;
20792;SDS011;10556;-33.662;151.094;2023-02-12T01:38:02;8.10;;;2.38;;
20792;SDS011;10556;-33.662;151.094;2023-02-12T01:43:05;6.40;;;1.55;;
20792;SDS011;10556;-33.662;151.094;2023-02-12T01:48:07;13.10;;;4.05;;
20792;SDS011;10556;-33.662;151.094;2023-02-12T01:53:08;8.85;;;2.70;;
20792;SDS011;10556;-33.662;151.094;2023-02-12T01:58:12;9.82;;;2.63;;
20792;SDS011;10556;-33.662;151.094;2023-02-12T02:03:14;9.38;;;2.75;;
20792;SDS011;10556;-33.662;151.094;2023-02-12T02:08:15;5.07;;;2.15;;
20792;SDS011;10556;-33.662;151.094;2023-02-12T02:13:19;11.30;;;2.92;;
20792;SDS011;10556;-33.662;151.094;2023-02-12T02:18:22;9.52;;;2.08;;
20792;SDS011;10556;-33.662;151.094;2023-02-12T02:23:28;18.23;;;3.15;;
20792;SDS011;10556;-33.662;151.094;2023-02-12T02:28:45;7.30;;;3.10;;
20792;SDS011;10556;-33.662;151.094;2023-02-12T02:33:54;9.50;;;2.80;;
20792;SDS011;10556;-33.662;151.094;2023-02-12T02:38:59;8.43;;;2.20;;
20792;SDS011;10556;-33.662;151.094;2023-02-12T02:44:04;13.07;;;3.03;;
20792;SDS011;10556;-33.662;151.094;2023-02-12T02:49:11;9.07;;;2.35;;
20792;SDS011;10556;-33.662;151.094;2023-02-12T02:54:14;10.07;;;2.75;;
20792;SDS011;10556;-33.662;151.094;2023-02-12T02:59:17;9.60;;;2.53;;
20792;SDS011;10556;-33.662;151.094;2023-02-12T03:04:22;8.88;;;2.45;;
20792;SDS011;10556;-33.662;151.094;2023-02-12T03:09:25;11.32;;;2.90;;
20792;SDS011;10556;-33.662;151.094;2023-02-12T03:14:28;8.80;;;2.03;;
20792;SDS011;10556;-33.662;151.094;2023-02-12T03:19:36;11.73;;;2.75;;
20792;SDS011;10556;-33.662;151.094;2023-02-12T03:24:40;9.43;;;2.35;;
20792;SDS011;10556;-33.662;151.094;2023-02-12T03:29:43;6.28;;;2.10;;
20792;SDS011;10556;-33.662;151.094;2023-02-12T03:34:48;8.85;;;1.95;;
20792;SDS011;10556;-33.662;151.094;2023-02-12T03:39:51;9.82;;;2.60;;
20792;SDS011;10556;-33.662;151.094;2023-02-12T03:44:54;12.85;;;2.78;;
20792;SDS011;10556;-33.662;151.094;2023-02-12T03:50:02;13.32;;;2.55;;
20792;SDS011;10556;-33.662;151.094;2023-02-12T03:55:06;9.98;;;2.40;;
20792;SDS011;10556;-33.662;151.094;2023-02-12T04:00:09;7.20;;;2.50;;
20792;SDS011;10556;-33.662;151.094;2023-02-12T04:05:18;5.80;;;2.13;;
20792;SDS011;10556;-33.662;151.094;2023-02-12T04:10:20;7.18;;;2.08;;
20792;SDS011;10556;-33.662;151.094;2023-02-12T04:15:27;7.93;;;1.92;;
20792;SDS011;10556;-33.662;151.094;2023-02-12T04:20:34;7.22;;;2.30;;
20792;SDS011;10556;-33.662;151.094;2023-02-12T04:25:42;7.78;;;2.25;;
20792;SDS011;10556;-33.662;151.094;2023-02-12T04:30:46;5.57;;;2.35;;
20792;SDS011;10556;-33.662;151.094;2023-02-12T04:35:53;6.55;;;2.08;;
20792;SDS011;10556;-33.662;151.094;2023-02-12T04:40:56;9.93;;;2.85;;
20792;SDS011;10556;-33.662;151.094;2023-02-12T04:45:58;5.72;;;2.33;;
20792;SDS011;10556;-33.662;151.094;2023-02-12T04:51:01;8.23;;;2.40;;
20792;SDS011;10556;-33.662;151.094;2023-02-12T04:56:03;6.35;;;2.40;;
20792;SDS011;10556;-33.662;151.094;2023-02-12T05:01:05;9.82;;;3.08;;
20792;SDS011;10556;-33.662;151.094;2023-02-12T05:06:08;10.48;;;2.70;;
20792;SDS011;10556;-33.662;151.094;2023-02-12T05:11:10;7.90;;;2.30;;
20792;SDS011;10556;-33.662;151.094;2023-02-12T05:16:11;9.88;;;2.97;;
20792;SDS011;10556;-33.662;151.094;2023-02-12T05:21:18;6.45;;;2.53;;
20792;SDS011;10556;-33.662;151.094;2023-02-12T05:26:20;6.13;;;2.38;;
20792;SDS011;10556;-33.662;151.094;2023-02-12T05:31:21;7.35;;;1.98;;
20792;SDS011;10556;-33.662;151.094;2023-02-12T05:36:26;8.23;;;2.50;;
20792;SDS011;10556;-33.662;151.094;2023-02-12T05:41:27;6.57;;;2.10;;
20792;SDS011;10556;-33.662;151.094;2023-02-12T05:46:29;6.13;;;1.90;;
20792;SDS011;10556;-33.662;151.094;2023-02-12T05:51:32;7.80;;;2.40;;
20792;SDS011;10556;-33.662;151.094;2023-02-12T05:56:35;7.43;;;2.20;;
20792;SDS011;10556;-33.662;151.094;2023-02-12T06:01:37;6.43;;;2.00;;
20792;SDS011;10556;-33.662;151.094;2023-02-12T06:06:41;5.63;;;1.70;;
20792;SDS011;10556;-33.662;151.094;2023-02-12T06:11:42;7.70;;;1.80;;
20792;SDS011;10556;-33.662;151.094;2023-02-12T06:16:44;8.40;;;1.92;;
20792;SDS011;10556;-33.662;151.094;2023-02-12T06:21:47;8.35;;;1.85;;
20792;SDS011;10556;-33.662;151.094;2023-02-12T06:26:49;9.65;;;2.65;;
20792;SDS011;10556;-33.662;151.094;2023-02-12T06:31:50;11.38;;;2.50;;
20792;SDS011;10556;-33.662;151.094;2023-02-12T06:36:55;9.07;;;2.80;;
20792;SDS011;10556;-33.662;151.094;2023-02-12T06:41:56;7.00;;;2.50;;
20792;SDS011;10556;-33.662;151.094;2023-02-12T06:46:58;9.63;;;2.22;;
20792;SDS011;10556;-33.662;151.094;2023-02-12T06:52:01;7.95;;;2.38;;
20792;SDS011;10556;-33.662;151.094;2023-02-12T06:57:03;13.30;;;3.05;;
20792;SDS011;10556;-33.662;151.094;2023-02-12T07:02:04;17.15;;;2.90;;
20792;SDS011;10556;-33.662;151.094;2023-02-12T07:07:07;8.68;;;2.30;;
20792;SDS011;10556;-33.662;151.094;2023-02-12T07:12:09;10.45;;;2.42;;
20792;SDS011;10556;-33.662;151.094;2023-02-12T07:17:10;10.02;;;2.55;;
20792;SDS011;10556;-33.662;151.094;2023-02-12T07:22:14;7.68;;;1.80;;
20792;SDS011;10556;-33.662;151.094;2023-02-12T07:27:15;14.48;;;3.00;;
20792;SDS011;10556;-33.662;151.094;2023-02-12T07:32:17;8.98;;;2.30;;
20792;SDS011;10556;-33.662;151.094;2023-02-12T07:37:20;8.13;;;1.70;;
20792;SDS011;10556;-33.662;151.094;2023-02-12T07:42:21;8.90;;;2.55;;
20792;SDS011;10556;-33.662;151.094;2023-02-12T07:47:23;7.30;;;1.95;;
20792;SDS011;10556;-33.662;151.094;2023-02-12T07:52:26;11.43;;;2.47;;
20792;SDS011;10556;-33.662;151.094;2023-02-12T07:57:27;8.45;;;3.38;;
20792;SDS011;10556;-33.662;151.094;2023-02-12T08:02:29;19.45;;;12.13;;
20792;SDS011;10556;-33.662;151.094;2023-02-12T08:07:32;21.00;;;9.90;;
20792;SDS011;10556;-33.662;151.094;2023-02-12T08:12:34;19.65;;;9.02;;
20792;SDS011;10556;-33.662;151.094;2023-02-12T08:17:35;9.45;;;4.95;;
20792;SDS011;10556;-33.662;151.094;2023-02-12T08:22:39;13.20;;;3.73;;
20792;SDS011;10556;-33.662;151.094;2023-02-12T08:27:40;14.50;;;3.25;;
20792;SDS011;10556;-33.662;151.094;2023-02-12T08:32:42;7.72;;;2.25;;
20792;SDS011;10556;-33.662;151.094;2023-02-12T08:37:45;7.40;;;1.95;;
20792;SDS011;10556;-33.662;151.094;2023-02-12T08:42:46;8.13;;;2.47;;
20792;SDS011;10556;-33.662;151.094;2023-02-12T08:47:48;7.40;;;2.37;;
20792;SDS011;10556;-33.662;151.094;2023-02-12T08:52:51;7.20;;;2.00;;
20792;SDS011;10556;-33.662;151.094;2023-02-12T08:57:53;12.20;;;2.17;;
20792;SDS011;10556;-33.662;151.094;2023-02-12T09:02:54;7.60;;;2.10;;
20792;SDS011;10556;-33.662;151.094;2023-02-12T09:07:57;6.37;;;1.90;;
20792;SDS011;10556;-33.662;151.094;2023-02-12T09:12:59;10.63;;;1.97;;
20792;SDS011;10556;-33.662;151.094;2023-02-12T09:18:00;8.97;;;2.30;;
20792;SDS011;10556;-33.662;151.094;2023-02-12T09:23:04;14.27;;;2.60;;
20792;SDS011;10556;-33.662;151.094;2023-02-12T09:28:05;11.57;;;2.50;;
20792;SDS011;10556;-33.662;151.094;2023-02-12T09:33:08;7.20;;;1.83;;
20792;SDS011;10556;-33.662;151.094;2023-02-12T09:38:12;8.63;;;2.03;;
20792;SDS011;10556;-33.662;151.094;2023-02-12T09:43:16;5.57;;;1.50;;
20792;SDS011;10556;-33.662;151.094;2023-02-12T09:48:27;9.27;;;2.00;;
20792;SDS011;10556;-33.662;151.094;2023-02-12T09:53:32;7.57;;;1.70;;
20792;SDS011;10556;-33.662;151.094;2023-02-12T09:58:35;5.40;;;1.27;;
20792;SDS011;10556;-33.662;151.094;2023-02-12T10:03:38;4.40;;;1.43;;
20792;SDS011;10556;-33.662;151.094;2023-02-12T10:08:45;4.73;;;1.90;;
20792;SDS011;10556;-33.662;151.094;2023-02-12T10:13:50;11.63;;;2.27;;
20792;SDS011;10556;-33.662;151.094;2023-02-12T10:18:59;7.30;;;2.07;;
20792;SDS011;10556;-33.662;151.094;2023-02-12T10:29:22;10.17;;;2.00;;
20792;SDS011;10556;-33.662;151.094;2023-02-12T10:34:24;12.43;;;2.13;;
20792;SDS011;10556;-33.662;151.094;2023-02-12T10:39:26;3.93;;;1.20;;
20792;SDS011;10556;-33.662;151.094;2023-02-12T10:44:31;8.37;;;1.80;;
20792;SDS011;10556;-33.662;151.094;2023-02-12T10:49:32;9.27;;;1.57;;
20792;SDS011;10556;-33.662;151.094;2023-02-12T10:54:38;6.07;;;1.50;;
20792;SDS011;10556;-33.662;151.094;2023-02-12T10:59:42;13.20;;;2.23;;
20792;SDS011;10556;-33.662;151.094;2023-02-12T11:04:43;11.83;;;2.07;;
20792;SDS011;10556;-33.662;151.094;2023-02-12T11:09:45;10.83;;;2.00;;
20792;SDS011;10556;-33.662;151.094;2023-02-12T11:14:53;7.17;;;1.60;;
20792;SDS011;10556;-33.662;151.094;2023-02-12T11:25:14;6.43;;;2.00;;
20792;SDS011;10556;-33.662;151.094;2023-02-12T11:30:18;10.77;;;2.40;;
20792;SDS011;10556;-33.662;151.094;2023-02-12T11:35:20;6.70;;;1.73;;
20792;SDS011;10556;-33.662;151.094;2023-02-12T11:40:22;7.37;;;2.07;;
20792;SDS011;10556;-33.662;151.094;2023-02-12T11:45:27;11.23;;;1.73;;
20792;SDS011;10556;-33.662;151.094;2023-02-12T11:50:30;7.57;;;1.63;;
20792;SDS011;10556;-33.662;151.094;2023-02-12T11:55:33;6.93;;;1.87;;
20792;SDS011;10556;-33.662;151.094;2023-02-12T12:00:38;5.97;;;1.80;;
20792;SDS011;10556;-33.662;151.094;2023-02-12T12:05:44;7.37;;;1.77;;
20792;SDS011;10556;-33.662;151.094;2023-02-12T12:10:48;4.80;;;1.17;;
20792;SDS011;10556;-33.662;151.094;2023-02-12T12:15:55;6.37;;;1.40;;
20792;SDS011;10556;-33.662;151.094;2023-02-12T12:21:02;10.50;;;2.00;;
20792;SDS011;10556;-33.662;151.094;2023-02-12T12:26:05;8.03;;;1.67;;
20792;SDS011;10556;-33.662;151.094;2023-02-12T12:31:09;8.67;;;1.60;;
20792;SDS011;10556;-33.662;151.094;2023-02-12T12:41:32;9.13;;;1.70;;
20792;SDS011;10556;-33.662;151.094;2023-02-12T12:46:45;8.20;;;2.00;;
20792;SDS011;10556;-33.662;151.094;2023-02-12T12:51:57;5.60;;;2.00;;
20792;SDS011;10556;-33.662;151.094;2023-02-12T12:57:02;6.77;;;1.83;;
20792;SDS011;10556;-33.662;151.094;2023-02-12T13:07:28;6.60;;;1.57;;
20792;SDS011;10556;-33.662;151.094;2023-02-12T13:17:53;5.73;;;1.50;;
20792;SDS011;10556;-33.662;151.094;2023-02-12T13:23:01;5.80;;;1.37;;
20792;SDS011;10556;-33.662;151.094;2023-02-12T13:28:04;8.37;;;1.93;;
20792;SDS011;10556;-33.662;151.094;2023-02-12T13:33:10;7.20;;;2.03;;
20792;SDS011;10556;-33.662;151.094;2023-02-12T13:38:16;7.53;;;1.90;;
20792;SDS011;10556;-33.662;151.094;2023-02-12T13:43:22;6.30;;;1.70;;
20792;SDS011;10556;-33.662;151.094;2023-02-12T13:53:53;8.87;;;2.10;;
20792;SDS011;10556;-33.662;151.094;2023-02-12T13:58:58;7.43;;;1.60;;
20792;SDS011;10556;-33.662;151.094;2023-02-12T14:04:13;10.40;;;2.50;;
20792;SDS011;10556;-33.662;151.094;2023-02-12T14:09:20;6.53;;;1.90;;
20792;SDS011;10556;-33.662;151.094;2023-02-12T14:14:25;11.17;;;2.77;;
20792;SDS011;10556;-33.662;151.094;2023-02-12T14:24:50;6.07;;;2.33;;
20792;SDS011;10556;-33.662;151.094;2023-02-12T14:40:37;7.17;;;2.00;;
20792;SDS011;10556;-33.662;151.094;2023-02-12T14:45:39;8.50;;;2.53;;
20792;SDS011;10556;-33.662;151.094;2023-02-12T14:50:42;4.40;;;1.43;;
20792;SDS011;10556;-33.662;151.094;2023-02-12T14:55:46;7.70;;;2.67;;
20792;SDS011;10556;-33.662;151.094;2023-02-12T15:00:48;6.40;;;2.27;;
20792;SDS011;10556;-33.662;151.094;2023-02-12T15:05:54;6.10;;;2.27;;
20792;SDS011;10556;-33.662;151.094;2023-02-12T15:11:01;8.63;;;2.23;;
20792;SDS011;10556;-33.662;151.094;2023-02-12T15:16:06;9.40;;;2.60;;
20792;SDS011;10556;-33.662;151.094;2023-02-12T15:21:12;7.47;;;2.63;;
20792;SDS011;10556;-33.662;151.094;2023-02-12T15:26:16;5.60;;;1.93;;
20792;SDS011;10556;-33.662;151.094;2023-02-12T15:31:19;9.93;;;2.67;;
20792;SDS011;10556;-33.662;151.094;2023-02-12T15:36:21;7.57;;;2.40;;
20792;SDS011;10556;-33.662;151.094;2023-02-12T15:41:26;11.17;;;3.13;;
20792;SDS011;10556;-33.662;151.094;2023-02-12T15:46:29;9.27;;;3.03;;
20792;SDS011;10556;-33.662;151.094;2023-02-12T15:51:31;10.37;;;2.90;;
20792;SDS011;10556;-33.662;151.094;2023-02-12T15:56:36;10.67;;;3.80;;
20792;SDS011;10556;-33.662;151.094;2023-02-12T16:01:40;12.30;;;2.90;;
20792;SDS011;10556;-33.662;151.094;2023-02-12T16:06:52;9.70;;;2.87;;
20792;SDS011;10556;-33.662;151.094;2023-02-12T16:11:56;7.40;;;2.63;;
20792;SDS011;10556;-33.662;151.094;2023-02-12T16:16:59;6.63;;;2.50;;
20792;SDS011;10556;-33.662;151.094;2023-02-12T16:22:01;7.37;;;2.40;;
20792;SDS011;10556;-33.662;151.094;2023-02-12T16:27:17;10.30;;;2.33;;
20792;SDS011;10556;-33.662;151.094;2023-02-12T16:32:26;10.23;;;2.97;;
20792;SDS011;10556;-33.662;151.094;2023-02-12T16:37:44;8.93;;;2.57;;
20792;SDS011;10556;-33.662;151.094;2023-02-12T16:43:04;7.37;;;2.30;;
20792;SDS011;10556;-33.662;151.094;2023-02-12T16:48:11;6.30;;;2.00;;
20792;SDS011;10556;-33.662;151.094;2023-02-12T16:58:36;8.73;;;2.27;;
20792;SDS011;10556;-33.662;151.094;2023-02-12T17:03:37;7.47;;;2.70;;
20792;SDS011;10556;-33.662;151.094;2023-02-12T17:08:39;8.10;;;2.43;;
20792;SDS011;10556;-33.662;151.094;2023-02-12T17:13:43;11.30;;;3.30;;
20792;SDS011;10556;-33.662;151.094;2023-02-12T17:18:44;14.73;;;3.63;;
20792;SDS011;10556;-33.662;151.094;2023-02-12T17:23:45;9.03;;;2.80;;
20792;SDS011;10556;-33.662;151.094;2023-02-12T17:28:49;8.33;;;2.00;;
20792;SDS011;10556;-33.662;151.094;2023-02-12T17:33:50;10.67;;;2.73;;
20792;SDS011;10556;-33.662;151.094;2023-02-12T17:38:52;8.37;;;2.37;;
20792;SDS011;10556;-33.662;151.094;2023-02-12T17:43:55;8.27;;;2.33;;
20792;SDS011;10556;-33.662;151.094;2023-02-12T17:48:57;7.47;;;2.00;;
20792;SDS011;10556;-33.662;151.094;2023-02-12T17:53:58;8.87;;;1.87;;
20792;SDS011;10556;-33.662;151.094;2023-02-12T17:59:02;8.40;;;2.20;;
20792;SDS011;10556;-33.662;151.094;2023-02-12T18:04:03;5.50;;;2.20;;
20792;SDS011;10556;-33.662;151.094;2023-02-12T18:09:04;10.17;;;2.70;;
20792;SDS011;10556;-33.662;151.094;2023-02-12T18:14:09;12.30;;;2.90;;
20792;SDS011;10556;-33.662;151.094;2023-02-12T18:19:11;9.37;;;2.20;;
20792;SDS011;10556;-33.662;151.094;2023-02-12T18:24:12;7.80;;;2.57;;
20792;SDS011;10556;-33.662;151.094;2023-02-12T18:29:16;9.30;;;2.47;;
20792;SDS011;10556;-33.662;151.094;2023-02-12T18:34:17;9.67;;;2.13;;
20792;SDS011;10556;-33.662;151.094;2023-02-12T18:39:18;7.13;;;1.90;;
20792;SDS011;10556;-33.662;151.094;2023-02-12T18:44:22;9.80;;;1.80;;
20792;SDS011;10556;-33.662;151.094;2023-02-12T18:49:23;5.53;;;1.87;;
20792;SDS011;10556;-33.662;151.094;2023-02-12T18:54:25;12.47;;;2.80;;
20792;SDS011;10556;-33.662;151.094;2023-02-12T18:59:28;13.87;;;3.73;;
20792;SDS011;10556;-33.662;151.094;2023-02-12T19:04:30;15.37;;;2.77;;
20792;SDS011;10556;-33.662;151.094;2023-02-12T19:09:31;18.97;;;3.63;;
20792;SDS011;10556;-33.662;151.094;2023-02-12T19:14:34;11.97;;;3.00;;
20792;SDS011;10556;-33.662;151.094;2023-02-12T19:19:36;11.03;;;2.70;;
20792;SDS011;10556;-33.662;151.094;2023-02-12T19:24:37;10.70;;;2.13;;
20792;SDS011;10556;-33.662;151.094;2023-02-12T19:29:41;17.77;;;3.97;;
20792;SDS011;10556;-33.662;151.094;2023-02-12T19:34:42;15.27;;;3.30;;
20792;SDS011;10556;-33.662;151.094;2023-02-12T19:39:44;14.67;;;2.90;;
20792;SDS011;10556;-33.662;151.094;2023-02-12T19:44:47;17.27;;;3.87;;
20792;SDS011;10556;-33.662;151.094;2023-02-12T19:49:49;8.87;;;2.40;;
20792;SDS011;10556;-33.662;151.094;2023-02-12T19:54:51;23.80;;;4.23;;
20792;SDS011;10556;-33.662;151.094;2023-02-12T19:59:54;13.10;;;3.07;;
20792;SDS011;10556;-33.662;151.094;2023-02-12T20:04:56;8.40;;;2.13;;
20792;SDS011;10556;-33.662;151.094;2023-02-12T20:09:57;12.13;;;2.73;;
20792;SDS011;10556;-33.662;151.094;2023-02-12T20:15:00;24.07;;;3.77;;
20792;SDS011;10556;-33.662;151.094;2023-02-12T20:20:02;13.77;;;3.00;;
20792;SDS011;10556;-33.662;151.094;2023-02-12T20:25:04;14.13;;;2.80;;
20792;SDS011;10556;-33.662;151.094;2023-02-12T20:30:08;15.90;;;3.10;;
20792;SDS011;10556;-33.662;151.094;2023-02-12T20:35:09;15.20;;;2.83;;
20792;SDS011;10556;-33.662;151.094;2023-02-12T20:40:11;12.37;;;2.83;;
20792;SDS011;10556;-33.662;151.094;2023-02-12T20:45:14;12.10;;;2.97;;
20792;SDS011;10556;-33.662;151.094;2023-02-12T20:50:16;22.67;;;3.80;;
20792;SDS011;10556;-33.662;151.094;2023-02-12T20:55:17;15.73;;;2.70;;
20792;SDS011;10556;-33.662;151.094;2023-02-12T21:00:21;13.83;;;3.00;;
20792;SDS011;10556;-33.662;151.094;2023-02-12T21:05:22;16.60;;;2.53;;
20792;SDS011;10556;-33.662;151.094;2023-02-12T21:10:23;11.13;;;2.37;;
20792;SDS011;10556;-33.662;151.094;2023-02-12T21:15:27;16.30;;;2.80;;
20792;SDS011;10556;-33.662;151.094;2023-02-12T21:20:28;11.07;;;3.03;;
20792;SDS011;10556;-33.662;151.094;2023-02-12T21:25:30;17.90;;;3.03;;
20792;SDS011;10556;-33.662;151.094;2023-02-12T21:35:36;8.90;;;2.67;;
20792;SDS011;10556;-33.662;151.094;2023-02-12T21:40:38;14.30;;;3.13;;
20792;SDS011;10556;-33.662;151.094;2023-02-12T21:45:48;9.73;;;1.80;;
20792;SDS011;10556;-33.662;151.094;2023-02-12T21:50:51;7.27;;;2.10;;
20792;SDS011;10556;-33.662;151.094;2023-02-12T21:55:53;8.97;;;2.00;;
20792;SDS011;10556;-33.662;151.094;2023-02-12T22:00:54;6.30;;;1.87;;
20792;SDS011;10556;-33.662;151.094;2023-02-12T22:06:00;8.23;;;1.83;;
20792;SDS011;10556;-33.662;151.094;2023-02-12T22:11:02;11.43;;;1.63;;
20792;SDS011;10556;-33.662;151.094;2023-02-12T22:16:07;17.60;;;3.00;;
20792;SDS011;10556;-33.662;151.094;2023-02-12T22:21:11;6.90;;;1.80;;
20792;SDS011;10556;-33.662;151.094;2023-02-12T22:26:13;13.50;;;2.43;;
20792;SDS011;10556;-33.662;151.094;2023-02-12T22:31:16;7.47;;;1.40;;
20792;SDS011;10556;-33.662;151.094;2023-02-12T22:36:19;8.97;;;1.60;;
20792;SDS011;10556;-33.662;151.094;2023-02-12T22:41:21;5.83;;;1.60;;
20792;SDS011;10556;-33.662;151.094;2023-02-12T22:46:22;5.53;;;1.97;;
20792;SDS011;10556;-33.662;151.094;2023-02-12T22:51:26;9.73;;;2.23;;
20792;SDS011;10556;-33.662;151.094;2023-02-12T22:56:28;12.97;;;2.47;;
20792;SDS011;10556;-33.662;151.094;2023-02-12T23:01:29;8.83;;;1.97;;
20792;SDS011;10556;-33.662;151.094;2023-02-12T23:06:32;8.00;;;2.20;;
20792;SDS011;10556;-33.662;151.094;2023-02-12T23:11:34;6.30;;;1.80;;
20792;SDS011;10556;-33.662;151.094;2023-02-12T23:16:35;4.77;;;1.50;;
20792;SDS011;10556;-33.662;151.094;2023-02-12T23:21:39;13.53;;;2.33;;
20792;SDS011;10556;-33.662;151.094;2023-02-12T23:26:40;4.90;;;1.47;;
20792;SDS011;10556;-33.662;151.094;2023-02-12T23:31:41;6.70;;;1.50;;
20792;SDS011;10556;-33.662;151.094;2023-02-12T23:36:45;7.83;;;1.83;;
20792;SDS011;10556;-33.662;151.094;2023-02-12T23:41:46;3.80;;;1.17;;
20792;SDS011;10556;-33.662;151.094;2023-02-12T23:46:48;5.40;;;1.47;;
20792;SDS011;10556;-33.662;151.094;2023-02-12T23:51:51;6.47;;;1.70;;
20792;SDS011;10556;-33.662;151.094;2023-02-12T23:56:52;9.50;;;1.93;;
